sensor_id;sensor_type;location;lat;lon;timestamp;P1;durP1;ratioP1;P2;durP2;ratioP2
62880;SDS011;48969;49.934;8.596;2022-09-09T00:00:45;2.80;;;1.30;;
62880;SDS011;48969;49.934;8.596;2022-09-09T00:03:15;3.75;;;1.40;;
62880;SDS011;48969;49.934;8.596;2022-09-09T00:05:44;4.10;;;1.35;;
62880;SDS011;48969;49.934;8.596;2022-09-09T00:08:20;4.65;;;1.50;;
62880;SDS011;48969;49.934;8.596;2022-09-09T00:10:52;2.55;;;1.25;;
62880;SDS011;48969;49.934;8.596;2022-09-09T00:16:19;4.57;;;1.60;;
62880;SDS011;48969;49.934;8.596;2022-09-09T00:21:35;2.85;;;1.40;;
62880;SDS011;48969;49.934;8.596;2022-09-09T00:24:17;5.68;;;1.60;;
62880;SDS011;48969;49.934;8.596;2022-09-09T00:26:51;4.03;;;1.60;;
62880;SDS011;48969;49.934;8.596;2022-09-09T00:29:28;5.53;;;1.73;;
62880;SDS011;48969;49.934;8.596;2022-09-09T00:32:14;3.42;;;1.40;;
62880;SDS011;48969;49.934;8.596;2022-09-09T00:34:47;3.50;;;1.40;;
62880;SDS011;48969;49.934;8.596;2022-09-09T00:37:19;1.95;;;1.25;;
62880;SDS011;48969;49.934;8.596;2022-09-09T00:39:47;5.40;;;1.80;;
62880;SDS011;48969;49.934;8.596;2022-09-09T00:42:23;4.70;;;1.52;;
62880;SDS011;48969;49.934;8.596;2022-09-09T00:47:54;5.40;;;1.58;;
62880;SDS011;48969;49.934;8.596;2022-09-09T00:50:31;2.50;;;1.40;;
62880;SDS011;48969;49.934;8.596;2022-09-09T00:53:26;3.08;;;1.50;;
62880;SDS011;48969;49.934;8.596;2022-09-09T00:58:47;4.68;;;1.80;;
62880;SDS011;48969;49.934;8.596;2022-09-09T01:01:35;4.53;;;1.95;;
62880;SDS011;48969;49.934;8.596;2022-09-09T01:04:01;5.85;;;1.52;;
62880;SDS011;48969;49.934;8.596;2022-09-09T01:06:34;2.78;;;1.55;;
62880;SDS011;48969;49.934;8.596;2022-09-09T01:09:06;3.33;;;1.48;;
62880;SDS011;48969;49.934;8.596;2022-09-09T01:11:57;4.17;;;1.60;;
62880;SDS011;48969;49.934;8.596;2022-09-09T01:17:15;4.80;;;1.70;;
62880;SDS011;48969;49.934;8.596;2022-09-09T01:20:14;3.45;;;1.60;;
62880;SDS011;48969;49.934;8.596;2022-09-09T01:26:01;5.57;;;2.00;;
62880;SDS011;48969;49.934;8.596;2022-09-09T01:28:47;4.70;;;1.63;;
62880;SDS011;48969;49.934;8.596;2022-09-09T01:31:19;4.00;;;1.70;;
62880;SDS011;48969;49.934;8.596;2022-09-09T01:33:47;2.53;;;1.55;;
62880;SDS011;48969;49.934;8.596;2022-09-09T01:36:15;3.40;;;1.73;;
62880;SDS011;48969;49.934;8.596;2022-09-09T01:38:46;2.90;;;1.60;;
62880;SDS011;48969;49.934;8.596;2022-09-09T01:41:12;5.13;;;2.10;;
62880;SDS011;48969;49.934;8.596;2022-09-09T01:43:37;5.00;;;1.80;;
62880;SDS011;48969;49.934;8.596;2022-09-09T01:46:03;4.05;;;1.80;;
62880;SDS011;48969;49.934;8.596;2022-09-09T01:48:28;4.32;;;1.80;;
62880;SDS011;48969;49.934;8.596;2022-09-09T01:50:55;4.85;;;1.85;;
62880;SDS011;48969;49.934;8.596;2022-09-09T01:53:20;4.80;;;1.77;;
62880;SDS011;48969;49.934;8.596;2022-09-09T01:55:52;3.45;;;1.80;;
62880;SDS011;48969;49.934;8.596;2022-09-09T02:03:53;4.00;;;2.00;;
62880;SDS011;48969;49.934;8.596;2022-09-09T02:08:50;4.38;;;2.00;;
62880;SDS011;48969;49.934;8.596;2022-09-09T02:11:20;9.63;;;2.42;;
62880;SDS011;48969;49.934;8.596;2022-09-09T02:13:48;6.43;;;2.13;;
62880;SDS011;48969;49.934;8.596;2022-09-09T02:16:25;5.05;;;2.05;;
62880;SDS011;48969;49.934;8.596;2022-09-09T02:19:01;4.38;;;2.00;;
62880;SDS011;48969;49.934;8.596;2022-09-09T02:21:32;4.72;;;1.88;;
62880;SDS011;48969;49.934;8.596;2022-09-09T02:24:00;3.92;;;2.03;;
62880;SDS011;48969;49.934;8.596;2022-09-09T02:26:29;6.40;;;1.90;;
62880;SDS011;48969;49.934;8.596;2022-09-09T02:28:58;5.22;;;2.15;;
62880;SDS011;48969;49.934;8.596;2022-09-09T02:31:26;4.95;;;1.80;;
62880;SDS011;48969;49.934;8.596;2022-09-09T02:33:54;4.65;;;1.83;;
62880;SDS011;48969;49.934;8.596;2022-09-09T02:36:24;3.40;;;1.80;;
62880;SDS011;48969;49.934;8.596;2022-09-09T02:38:54;3.17;;;1.90;;
62880;SDS011;48969;49.934;8.596;2022-09-09T02:41:22;5.30;;;1.85;;
62880;SDS011;48969;49.934;8.596;2022-09-09T02:43:53;4.60;;;2.03;;
62880;SDS011;48969;49.934;8.596;2022-09-09T02:48:57;4.28;;;1.67;;
62880;SDS011;48969;49.934;8.596;2022-09-09T02:56:49;5.85;;;1.98;;
62880;SDS011;48969;49.934;8.596;2022-09-09T02:59:19;3.45;;;1.83;;
62880;SDS011;48969;49.934;8.596;2022-09-09T03:01:45;3.30;;;1.75;;
62880;SDS011;48969;49.934;8.596;2022-09-09T03:04:11;4.60;;;1.70;;
62880;SDS011;48969;49.934;8.596;2022-09-09T03:06:37;3.67;;;2.00;;
62880;SDS011;48969;49.934;8.596;2022-09-09T03:09:02;4.25;;;1.48;;
62880;SDS011;48969;49.934;8.596;2022-09-09T03:11:28;4.45;;;2.00;;
62880;SDS011;48969;49.934;8.596;2022-09-09T03:13:53;3.70;;;1.38;;
62880;SDS011;48969;49.934;8.596;2022-09-09T03:16:21;4.20;;;1.75;;
62880;SDS011;48969;49.934;8.596;2022-09-09T03:18:49;3.78;;;1.70;;
62880;SDS011;48969;49.934;8.596;2022-09-09T03:21:14;2.60;;;1.80;;
62880;SDS011;48969;49.934;8.596;2022-09-09T03:23:40;3.47;;;1.83;;
62880;SDS011;48969;49.934;8.596;2022-09-09T03:26:05;3.80;;;1.88;;
62880;SDS011;48969;49.934;8.596;2022-09-09T03:28:31;3.25;;;1.80;;
62880;SDS011;48969;49.934;8.596;2022-09-09T03:31:00;3.92;;;2.00;;
62880;SDS011;48969;49.934;8.596;2022-09-09T03:33:26;6.05;;;1.98;;
62880;SDS011;48969;49.934;8.596;2022-09-09T03:35:51;5.38;;;1.80;;
62880;SDS011;48969;49.934;8.596;2022-09-09T03:38:17;2.85;;;1.77;;
62880;SDS011;48969;49.934;8.596;2022-09-09T03:40:49;4.80;;;1.98;;
62880;SDS011;48969;49.934;8.596;2022-09-09T03:43:16;6.07;;;1.90;;
62880;SDS011;48969;49.934;8.596;2022-09-09T03:45:44;4.07;;;1.70;;
62880;SDS011;48969;49.934;8.596;2022-09-09T03:48:12;8.10;;;2.00;;
62880;SDS011;48969;49.934;8.596;2022-09-09T03:50:38;4.45;;;1.85;;
62880;SDS011;48969;49.934;8.596;2022-09-09T03:53:03;3.35;;;1.67;;
62880;SDS011;48969;49.934;8.596;2022-09-09T03:55:30;5.90;;;2.10;;
62880;SDS011;48969;49.934;8.596;2022-09-09T03:57:56;4.18;;;2.00;;
62880;SDS011;48969;49.934;8.596;2022-09-09T04:00:22;4.93;;;1.80;;
62880;SDS011;48969;49.934;8.596;2022-09-09T04:02:47;5.32;;;2.40;;
62880;SDS011;48969;49.934;8.596;2022-09-09T04:05:12;4.07;;;1.88;;
62880;SDS011;48969;49.934;8.596;2022-09-09T04:07:39;4.72;;;1.88;;
62880;SDS011;48969;49.934;8.596;2022-09-09T04:10:04;5.03;;;1.88;;
62880;SDS011;48969;49.934;8.596;2022-09-09T04:12:30;3.47;;;1.70;;
62880;SDS011;48969;49.934;8.596;2022-09-09T04:14:55;3.85;;;2.00;;
62880;SDS011;48969;49.934;8.596;2022-09-09T04:17:21;3.92;;;2.05;;
62880;SDS011;48969;49.934;8.596;2022-09-09T04:19:47;5.68;;;2.22;;
62880;SDS011;48969;49.934;8.596;2022-09-09T04:22:12;4.35;;;2.10;;
62880;SDS011;48969;49.934;8.596;2022-09-09T04:24:37;4.35;;;2.28;;
62880;SDS011;48969;49.934;8.596;2022-09-09T04:27:03;4.05;;;1.80;;
62880;SDS011;48969;49.934;8.596;2022-09-09T04:29:28;3.40;;;1.80;;
62880;SDS011;48969;49.934;8.596;2022-09-09T04:31:53;5.78;;;2.17;;
62880;SDS011;48969;49.934;8.596;2022-09-09T04:34:18;3.88;;;1.67;;
62880;SDS011;48969;49.934;8.596;2022-09-09T04:36:44;4.13;;;2.13;;
62880;SDS011;48969;49.934;8.596;2022-09-09T04:39:09;3.97;;;1.77;;
62880;SDS011;48969;49.934;8.596;2022-09-09T04:41:34;3.30;;;1.60;;
62880;SDS011;48969;49.934;8.596;2022-09-09T04:43:59;4.47;;;1.92;;
62880;SDS011;48969;49.934;8.596;2022-09-09T04:46:25;4.80;;;1.80;;
62880;SDS011;48969;49.934;8.596;2022-09-09T04:48:51;3.65;;;1.83;;
62880;SDS011;48969;49.934;8.596;2022-09-09T04:51:18;5.18;;;1.92;;
62880;SDS011;48969;49.934;8.596;2022-09-09T04:53:43;4.05;;;2.20;;
62880;SDS011;48969;49.934;8.596;2022-09-09T04:56:11;3.85;;;1.83;;
62880;SDS011;48969;49.934;8.596;2022-09-09T04:58:38;7.07;;;2.17;;
62880;SDS011;48969;49.934;8.596;2022-09-09T05:01:08;3.85;;;1.90;;
62880;SDS011;48969;49.934;8.596;2022-09-09T05:03:38;7.03;;;1.90;;
62880;SDS011;48969;49.934;8.596;2022-09-09T05:08:34;3.92;;;2.20;;
62880;SDS011;48969;49.934;8.596;2022-09-09T05:11:00;4.55;;;2.17;;
62880;SDS011;48969;49.934;8.596;2022-09-09T05:13:26;4.50;;;1.80;;
62880;SDS011;48969;49.934;8.596;2022-09-09T05:15:53;3.80;;;2.25;;
62880;SDS011;48969;49.934;8.596;2022-09-09T05:18:18;4.97;;;1.98;;
62880;SDS011;48969;49.934;8.596;2022-09-09T05:20:44;4.95;;;1.88;;
62880;SDS011;48969;49.934;8.596;2022-09-09T05:23:09;5.80;;;1.90;;
62880;SDS011;48969;49.934;8.596;2022-09-09T05:25:37;4.05;;;2.17;;
62880;SDS011;48969;49.934;8.596;2022-09-09T05:28:02;3.05;;;2.00;;
62880;SDS011;48969;49.934;8.596;2022-09-09T05:30:28;5.80;;;1.90;;
62880;SDS011;48969;49.934;8.596;2022-09-09T05:32:55;5.15;;;1.90;;
62880;SDS011;48969;49.934;8.596;2022-09-09T05:35:21;5.22;;;2.13;;
62880;SDS011;48969;49.934;8.596;2022-09-09T05:37:46;3.58;;;1.77;;
62880;SDS011;48969;49.934;8.596;2022-09-09T05:40:12;5.35;;;1.80;;
62880;SDS011;48969;49.934;8.596;2022-09-09T05:42:38;3.78;;;1.77;;
62880;SDS011;48969;49.934;8.596;2022-09-09T05:45:05;3.13;;;1.55;;
62880;SDS011;48969;49.934;8.596;2022-09-09T05:47:32;4.75;;;1.75;;
62880;SDS011;48969;49.934;8.596;2022-09-09T05:49:57;5.57;;;1.73;;
62880;SDS011;48969;49.934;8.596;2022-09-09T05:52:22;4.72;;;1.60;;
62880;SDS011;48969;49.934;8.596;2022-09-09T05:54:49;5.65;;;1.90;;
62880;SDS011;48969;49.934;8.596;2022-09-09T05:57:14;3.97;;;1.80;;
62880;SDS011;48969;49.934;8.596;2022-09-09T05:59:40;4.15;;;1.92;;
62880;SDS011;48969;49.934;8.596;2022-09-09T06:02:05;4.80;;;1.83;;
62880;SDS011;48969;49.934;8.596;2022-09-09T06:04:30;5.78;;;1.80;;
62880;SDS011;48969;49.934;8.596;2022-09-09T06:06:56;5.63;;;1.70;;
62880;SDS011;48969;49.934;8.596;2022-09-09T06:09:22;3.60;;;1.77;;
62880;SDS011;48969;49.934;8.596;2022-09-09T06:11:47;4.97;;;1.92;;
62880;SDS011;48969;49.934;8.596;2022-09-09T06:14:13;4.35;;;1.70;;
62880;SDS011;48969;49.934;8.596;2022-09-09T06:16:38;3.08;;;1.75;;
62880;SDS011;48969;49.934;8.596;2022-09-09T06:19:04;5.80;;;2.08;;
62880;SDS011;48969;49.934;8.596;2022-09-09T06:21:30;3.90;;;1.50;;
62880;SDS011;48969;49.934;8.596;2022-09-09T06:23:57;5.03;;;1.70;;
62880;SDS011;48969;49.934;8.596;2022-09-09T06:26:24;5.15;;;1.50;;
62880;SDS011;48969;49.934;8.596;2022-09-09T06:28:55;5.97;;;1.70;;
62880;SDS011;48969;49.934;8.596;2022-09-09T06:31:23;6.15;;;1.70;;
62880;SDS011;48969;49.934;8.596;2022-09-09T06:33:50;3.75;;;1.48;;
62880;SDS011;48969;49.934;8.596;2022-09-09T06:36:21;4.28;;;1.50;;
62880;SDS011;48969;49.934;8.596;2022-09-09T06:38:48;4.15;;;1.35;;
62880;SDS011;48969;49.934;8.596;2022-09-09T06:41:15;4.88;;;1.92;;
62880;SDS011;48969;49.934;8.596;2022-09-09T06:43:43;3.35;;;1.40;;
62880;SDS011;48969;49.934;8.596;2022-09-09T06:46:10;4.35;;;1.40;;
62880;SDS011;48969;49.934;8.596;2022-09-09T06:48:38;3.55;;;1.80;;
62880;SDS011;48969;49.934;8.596;2022-09-09T06:51:15;5.65;;;1.50;;
62880;SDS011;48969;49.934;8.596;2022-09-09T06:53:52;6.60;;;1.50;;
62880;SDS011;48969;49.934;8.596;2022-09-09T06:58:54;5.43;;;1.40;;
62880;SDS011;48969;49.934;8.596;2022-09-09T07:01:22;3.83;;;1.70;;
62880;SDS011;48969;49.934;8.596;2022-09-09T07:03:50;4.20;;;1.60;;
62880;SDS011;48969;49.934;8.596;2022-09-09T07:06:24;4.60;;;1.73;;
62880;SDS011;48969;49.934;8.596;2022-09-09T07:08:54;6.05;;;1.70;;
62880;SDS011;48969;49.934;8.596;2022-09-09T07:11:23;3.50;;;1.42;;
62880;SDS011;48969;49.934;8.596;2022-09-09T07:13:51;5.05;;;1.55;;
62880;SDS011;48969;49.934;8.596;2022-09-09T07:16:17;4.68;;;1.70;;
62880;SDS011;48969;49.934;8.596;2022-09-09T07:18:46;5.45;;;1.70;;
62880;SDS011;48969;49.934;8.596;2022-09-09T07:21:12;4.43;;;1.63;;
62880;SDS011;48969;49.934;8.596;2022-09-09T07:23:40;2.92;;;1.50;;
62880;SDS011;48969;49.934;8.596;2022-09-09T07:26:09;3.95;;;1.92;;
62880;SDS011;48969;49.934;8.596;2022-09-09T07:28:36;5.53;;;1.83;;
62880;SDS011;48969;49.934;8.596;2022-09-09T07:31:02;5.25;;;1.77;;
62880;SDS011;48969;49.934;8.596;2022-09-09T07:33:28;4.50;;;1.73;;
62880;SDS011;48969;49.934;8.596;2022-09-09T07:36:01;6.35;;;2.10;;
62880;SDS011;48969;49.934;8.596;2022-09-09T07:38:32;6.57;;;1.98;;
62880;SDS011;48969;49.934;8.596;2022-09-09T07:41:06;6.22;;;1.95;;
62880;SDS011;48969;49.934;8.596;2022-09-09T07:43:37;4.80;;;1.60;;
62880;SDS011;48969;49.934;8.596;2022-09-09T07:46:03;5.65;;;2.20;;
62880;SDS011;48969;49.934;8.596;2022-09-09T07:48:29;5.28;;;1.90;;
62880;SDS011;48969;49.934;8.596;2022-09-09T07:51:04;5.28;;;1.83;;
62880;SDS011;48969;49.934;8.596;2022-09-09T07:53:38;3.25;;;1.50;;
62880;SDS011;48969;49.934;8.596;2022-09-09T07:56:07;4.65;;;1.70;;
62880;SDS011;48969;49.934;8.596;2022-09-09T07:58:38;4.45;;;1.65;;
62880;SDS011;48969;49.934;8.596;2022-09-09T08:01:06;3.80;;;1.83;;
62880;SDS011;48969;49.934;8.596;2022-09-09T08:03:33;5.18;;;1.90;;
62880;SDS011;48969;49.934;8.596;2022-09-09T08:06:03;4.68;;;1.70;;
62880;SDS011;48969;49.934;8.596;2022-09-09T08:08:31;6.00;;;1.67;;
62880;SDS011;48969;49.934;8.596;2022-09-09T08:11:03;4.75;;;1.75;;
62880;SDS011;48969;49.934;8.596;2022-09-09T08:13:30;7.03;;;1.80;;
62880;SDS011;48969;49.934;8.596;2022-09-09T08:16:03;6.60;;;1.90;;
62880;SDS011;48969;49.934;8.596;2022-09-09T08:18:29;5.85;;;1.90;;
62880;SDS011;48969;49.934;8.596;2022-09-09T08:20:55;7.85;;;1.80;;
62880;SDS011;48969;49.934;8.596;2022-09-09T08:23:20;4.88;;;1.90;;
62880;SDS011;48969;49.934;8.596;2022-09-09T08:25:46;4.20;;;1.70;;
62880;SDS011;48969;49.934;8.596;2022-09-09T08:28:13;7.22;;;2.08;;
62880;SDS011;48969;49.934;8.596;2022-09-09T08:30:39;5.53;;;1.88;;
62880;SDS011;48969;49.934;8.596;2022-09-09T08:33:04;6.45;;;1.85;;
62880;SDS011;48969;49.934;8.596;2022-09-09T08:35:30;6.35;;;1.60;;
62880;SDS011;48969;49.934;8.596;2022-09-09T08:37:58;3.55;;;1.67;;
62880;SDS011;48969;49.934;8.596;2022-09-09T08:40:26;9.18;;;2.10;;
62880;SDS011;48969;49.934;8.596;2022-09-09T08:42:57;5.25;;;1.65;;
62880;SDS011;48969;49.934;8.596;2022-09-09T08:51:08;6.72;;;2.17;;
62880;SDS011;48969;49.934;8.596;2022-09-09T08:53:38;5.43;;;2.10;;
62880;SDS011;48969;49.934;8.596;2022-09-09T08:56:14;7.55;;;1.88;;
62880;SDS011;48969;49.934;8.596;2022-09-09T08:58:47;7.82;;;2.03;;
62880;SDS011;48969;49.934;8.596;2022-09-09T09:03:57;4.03;;;1.60;;
62880;SDS011;48969;49.934;8.596;2022-09-09T09:09:11;6.18;;;1.90;;
62880;SDS011;48969;49.934;8.596;2022-09-09T09:11:44;7.78;;;2.15;;
62880;SDS011;48969;49.934;8.596;2022-09-09T09:14:21;3.53;;;1.63;;
62880;SDS011;48969;49.934;8.596;2022-09-09T09:17:02;7.20;;;1.90;;
62880;SDS011;48969;49.934;8.596;2022-09-09T09:19:33;4.95;;;1.88;;
62880;SDS011;48969;49.934;8.596;2022-09-09T09:27:40;6.32;;;1.75;;
62880;SDS011;48969;49.934;8.596;2022-09-09T09:30:28;6.75;;;1.92;;
62880;SDS011;48969;49.934;8.596;2022-09-09T09:33:00;7.10;;;2.28;;
62880;SDS011;48969;49.934;8.596;2022-09-09T09:35:31;10.20;;;2.40;;
62880;SDS011;48969;49.934;8.596;2022-09-09T09:37:56;4.32;;;2.15;;
62880;SDS011;48969;49.934;8.596;2022-09-09T09:40:22;7.28;;;2.10;;
62880;SDS011;48969;49.934;8.596;2022-09-09T09:42:52;8.93;;;2.47;;
62880;SDS011;48969;49.934;8.596;2022-09-09T09:45:41;6.35;;;1.80;;
62880;SDS011;48969;49.934;8.596;2022-09-09T09:48:13;7.90;;;2.13;;
62880;SDS011;48969;49.934;8.596;2022-09-09T09:50:49;6.85;;;1.90;;
62880;SDS011;48969;49.934;8.596;2022-09-09T09:53:19;6.13;;;1.60;;
62880;SDS011;48969;49.934;8.596;2022-09-09T09:55:50;9.80;;;2.55;;
62880;SDS011;48969;49.934;8.596;2022-09-09T09:58:19;7.72;;;1.95;;
62880;SDS011;48969;49.934;8.596;2022-09-09T10:00:51;8.00;;;1.65;;
62880;SDS011;48969;49.934;8.596;2022-09-09T10:03:20;5.38;;;1.85;;
62880;SDS011;48969;49.934;8.596;2022-09-09T10:05:51;7.80;;;2.08;;
62880;SDS011;48969;49.934;8.596;2022-09-09T10:08:17;8.98;;;1.85;;
62880;SDS011;48969;49.934;8.596;2022-09-09T10:13:34;5.72;;;2.03;;
62880;SDS011;48969;49.934;8.596;2022-09-09T10:16:23;4.55;;;1.50;;
62880;SDS011;48969;49.934;8.596;2022-09-09T10:19:30;5.13;;;1.73;;
62880;SDS011;48969;49.934;8.596;2022-09-09T10:30:10;7.13;;;1.90;;
62880;SDS011;48969;49.934;8.596;2022-09-09T10:32:45;8.02;;;2.08;;
62880;SDS011;48969;49.934;8.596;2022-09-09T10:35:19;4.90;;;1.42;;
62880;SDS011;48969;49.934;8.596;2022-09-09T10:54:08;5.32;;;1.75;;
62880;SDS011;48969;49.934;8.596;2022-09-09T10:56:48;6.05;;;1.50;;
62880;SDS011;48969;49.934;8.596;2022-09-09T10:59:22;8.60;;;1.70;;
62880;SDS011;48969;49.934;8.596;2022-09-09T11:04:33;4.88;;;1.50;;
62880;SDS011;48969;49.934;8.596;2022-09-09T11:07:05;6.18;;;1.30;;
62880;SDS011;48969;49.934;8.596;2022-09-09T11:09:36;4.68;;;1.08;;
62880;SDS011;48969;49.934;8.596;2022-09-09T11:12:06;3.97;;;1.25;;
62880;SDS011;48969;49.934;8.596;2022-09-09T11:14:41;5.82;;;1.13;;
62880;SDS011;48969;49.934;8.596;2022-09-09T11:17:18;8.07;;;1.70;;
62880;SDS011;48969;49.934;8.596;2022-09-09T11:19:49;3.00;;;1.42;;
62880;SDS011;48969;49.934;8.596;2022-09-09T11:22:29;4.05;;;1.40;;
62880;SDS011;48969;49.934;8.596;2022-09-09T11:25:04;5.80;;;1.20;;
62880;SDS011;48969;49.934;8.596;2022-09-09T11:36:15;4.60;;;1.27;;
62880;SDS011;48969;49.934;8.596;2022-09-09T11:38:56;4.28;;;1.30;;
62880;SDS011;48969;49.934;8.596;2022-09-09T11:41:44;4.07;;;1.38;;
62880;SDS011;48969;49.934;8.596;2022-09-09T11:44:16;4.57;;;1.27;;
62880;SDS011;48969;49.934;8.596;2022-09-09T11:46:46;4.70;;;1.50;;
62880;SDS011;48969;49.934;8.596;2022-09-09T11:49:26;8.25;;;1.50;;
62880;SDS011;48969;49.934;8.596;2022-09-09T11:51:56;4.55;;;1.33;;
62880;SDS011;48969;49.934;8.596;2022-09-09T11:54:27;5.07;;;1.50;;
62880;SDS011;48969;49.934;8.596;2022-09-09T11:59:21;3.97;;;1.33;;
62880;SDS011;48969;49.934;8.596;2022-09-09T12:02:02;4.72;;;1.50;;
62880;SDS011;48969;49.934;8.596;2022-09-09T12:04:38;6.22;;;1.50;;
62880;SDS011;48969;49.934;8.596;2022-09-09T12:09:39;4.13;;;1.30;;
62880;SDS011;48969;49.934;8.596;2022-09-09T12:14:37;5.57;;;1.98;;
62880;SDS011;48969;49.934;8.596;2022-09-09T12:17:24;3.42;;;1.40;;
62880;SDS011;48969;49.934;8.596;2022-09-09T12:23:19;6.35;;;1.65;;
62880;SDS011;48969;49.934;8.596;2022-09-09T12:28:27;3.85;;;1.38;;
62880;SDS011;48969;49.934;8.596;2022-09-09T12:31:19;4.85;;;1.40;;
62880;SDS011;48969;49.934;8.596;2022-09-09T12:33:45;5.43;;;1.40;;
62880;SDS011;48969;49.934;8.596;2022-09-09T12:36:13;4.88;;;1.52;;
62880;SDS011;48969;49.934;8.596;2022-09-09T12:38:46;4.70;;;1.45;;
62880;SDS011;48969;49.934;8.596;2022-09-09T12:43:47;4.00;;;1.20;;
62880;SDS011;48969;49.934;8.596;2022-09-09T12:48:56;5.85;;;1.13;;
62880;SDS011;48969;49.934;8.596;2022-09-09T12:51:29;5.30;;;1.17;;
62880;SDS011;48969;49.934;8.596;2022-09-09T12:53:56;4.07;;;1.27;;
62880;SDS011;48969;49.934;8.596;2022-09-09T12:56:24;3.10;;;1.00;;
62880;SDS011;48969;49.934;8.596;2022-09-09T12:58:53;2.72;;;0.60;;
62880;SDS011;48969;49.934;8.596;2022-09-09T13:01:23;1.02;;;0.40;;
62880;SDS011;48969;49.934;8.596;2022-09-09T13:03:48;0.65;;;0.20;;
62880;SDS011;48969;49.934;8.596;2022-09-09T13:06:24;0.73;;;0.35;;
62880;SDS011;48969;49.934;8.596;2022-09-09T13:08:51;2.58;;;0.55;;
62880;SDS011;48969;49.934;8.596;2022-09-09T13:11:22;0.65;;;0.32;;
62880;SDS011;48969;49.934;8.596;2022-09-09T13:13:51;1.17;;;0.30;;
62880;SDS011;48969;49.934;8.596;2022-09-09T13:16:26;1.08;;;0.52;;
62880;SDS011;48969;49.934;8.596;2022-09-09T13:18:57;2.83;;;0.30;;
62880;SDS011;48969;49.934;8.596;2022-09-09T13:21:31;0.73;;;0.20;;
62880;SDS011;48969;49.934;8.596;2022-09-09T13:23:59;1.83;;;0.40;;
62880;SDS011;48969;49.934;8.596;2022-09-09T13:26:28;1.17;;;0.60;;
62880;SDS011;48969;49.934;8.596;2022-09-09T13:28:54;0.75;;;0.38;;
62880;SDS011;48969;49.934;8.596;2022-09-09T13:31:27;0.88;;;0.43;;
62880;SDS011;48969;49.934;8.596;2022-09-09T13:33:54;1.85;;;0.60;;
62880;SDS011;48969;49.934;8.596;2022-09-09T13:36:29;2.92;;;0.85;;
62880;SDS011;48969;49.934;8.596;2022-09-09T13:38:57;0.90;;;0.50;;
62880;SDS011;48969;49.934;8.596;2022-09-09T13:43:57;1.98;;;0.55;;
62880;SDS011;48969;49.934;8.596;2022-09-09T13:49:18;3.58;;;0.80;;
62880;SDS011;48969;49.934;8.596;2022-09-09T13:51:46;3.13;;;0.70;;
62880;SDS011;48969;49.934;8.596;2022-09-09T13:54:14;2.45;;;0.52;;
62880;SDS011;48969;49.934;8.596;2022-09-09T13:56:41;2.05;;;0.82;;
62880;SDS011;48969;49.934;8.596;2022-09-09T13:59:14;2.03;;;0.70;;
62880;SDS011;48969;49.934;8.596;2022-09-09T14:01:44;2.30;;;1.00;;
62880;SDS011;48969;49.934;8.596;2022-09-09T14:04:10;2.17;;;0.68;;
62880;SDS011;48969;49.934;8.596;2022-09-09T14:06:35;4.57;;;1.27;;
62880;SDS011;48969;49.934;8.596;2022-09-09T14:09:03;1.92;;;0.50;;
62880;SDS011;48969;49.934;8.596;2022-09-09T14:11:29;1.60;;;0.60;;
62880;SDS011;48969;49.934;8.596;2022-09-09T14:13:54;1.65;;;0.40;;
62880;SDS011;48969;49.934;8.596;2022-09-09T14:16:19;1.92;;;0.40;;
62880;SDS011;48969;49.934;8.596;2022-09-09T14:18:46;0.50;;;0.40;;
62880;SDS011;48969;49.934;8.596;2022-09-09T14:21:11;1.58;;;0.40;;
62880;SDS011;48969;49.934;8.596;2022-09-09T14:23:37;0.82;;;0.40;;
62880;SDS011;48969;49.934;8.596;2022-09-09T14:26:03;1.73;;;0.50;;
62880;SDS011;48969;49.934;8.596;2022-09-09T14:28:29;1.52;;;0.50;;
62880;SDS011;48969;49.934;8.596;2022-09-09T14:30:58;0.68;;;0.50;;
62880;SDS011;48969;49.934;8.596;2022-09-09T14:33:25;2.13;;;0.70;;
62880;SDS011;48969;49.934;8.596;2022-09-09T14:35:55;2.88;;;0.90;;
62880;SDS011;48969;49.934;8.596;2022-09-09T14:38:22;2.25;;;0.80;;
62880;SDS011;48969;49.934;8.596;2022-09-09T14:40:47;2.45;;;1.05;;
62880;SDS011;48969;49.934;8.596;2022-09-09T14:43:12;2.55;;;0.95;;
62880;SDS011;48969;49.934;8.596;2022-09-09T14:45:39;3.80;;;0.98;;
62880;SDS011;48969;49.934;8.596;2022-09-09T14:48:04;2.92;;;0.90;;
62880;SDS011;48969;49.934;8.596;2022-09-09T14:50:29;3.97;;;1.20;;
62880;SDS011;48969;49.934;8.596;2022-09-09T14:52:55;2.45;;;1.05;;
62880;SDS011;48969;49.934;8.596;2022-09-09T14:55:20;2.60;;;0.93;;
62880;SDS011;48969;49.934;8.596;2022-09-09T14:57:46;2.25;;;0.95;;
62880;SDS011;48969;49.934;8.596;2022-09-09T15:00:11;2.22;;;0.98;;
62880;SDS011;48969;49.934;8.596;2022-09-09T15:02:38;4.28;;;1.00;;
62880;SDS011;48969;49.934;8.596;2022-09-09T15:05:04;3.70;;;1.00;;
62880;SDS011;48969;49.934;8.596;2022-09-09T15:07:30;4.45;;;1.10;;
62880;SDS011;48969;49.934;8.596;2022-09-09T15:09:56;2.00;;;0.98;;
62880;SDS011;48969;49.934;8.596;2022-09-09T15:12:22;3.75;;;1.30;;
62880;SDS011;48969;49.934;8.596;2022-09-09T15:14:48;4.80;;;1.08;;
62880;SDS011;48969;49.934;8.596;2022-09-09T15:17:15;4.15;;;1.40;;
62880;SDS011;48969;49.934;8.596;2022-09-09T15:19:40;4.05;;;1.23;;
62880;SDS011;48969;49.934;8.596;2022-09-09T15:22:07;4.68;;;1.23;;
62880;SDS011;48969;49.934;8.596;2022-09-09T15:24:33;2.50;;;1.02;;
62880;SDS011;48969;49.934;8.596;2022-09-09T15:26:59;2.88;;;1.08;;
62880;SDS011;48969;49.934;8.596;2022-09-09T15:29:25;3.65;;;0.80;;
62880;SDS011;48969;49.934;8.596;2022-09-09T15:31:50;3.97;;;1.00;;
62880;SDS011;48969;49.934;8.596;2022-09-09T15:34:16;2.88;;;1.10;;
62880;SDS011;48969;49.934;8.596;2022-09-09T15:36:42;3.47;;;1.23;;
62880;SDS011;48969;49.934;8.596;2022-09-09T15:39:10;3.70;;;1.30;;
62880;SDS011;48969;49.934;8.596;2022-09-09T15:41:38;1.65;;;0.90;;
62880;SDS011;48969;49.934;8.596;2022-09-09T15:44:03;2.95;;;1.20;;
62880;SDS011;48969;49.934;8.596;2022-09-09T15:51:35;3.67;;;1.17;;
62880;SDS011;48969;49.934;8.596;2022-09-09T15:54:02;3.20;;;1.20;;
62880;SDS011;48969;49.934;8.596;2022-09-09T15:56:28;2.30;;;0.85;;
62880;SDS011;48969;49.934;8.596;2022-09-09T15:58:58;2.13;;;0.85;;
62880;SDS011;48969;49.934;8.596;2022-09-09T16:01:24;4.55;;;1.42;;
62880;SDS011;48969;49.934;8.596;2022-09-09T16:03:51;2.55;;;1.30;;
62880;SDS011;48969;49.934;8.596;2022-09-09T16:06:18;2.25;;;1.02;;
62880;SDS011;48969;49.934;8.596;2022-09-09T16:08:46;3.05;;;1.05;;
62880;SDS011;48969;49.934;8.596;2022-09-09T16:11:18;3.58;;;1.25;;
62880;SDS011;48969;49.934;8.596;2022-09-09T16:13:45;3.13;;;1.20;;
62880;SDS011;48969;49.934;8.596;2022-09-09T16:16:13;4.95;;;1.38;;
62880;SDS011;48969;49.934;8.596;2022-09-09T16:18:40;4.20;;;1.20;;
62880;SDS011;48969;49.934;8.596;2022-09-09T16:21:13;5.50;;;1.30;;
62880;SDS011;48969;49.934;8.596;2022-09-09T16:23:49;4.82;;;1.30;;
62880;SDS011;48969;49.934;8.596;2022-09-09T16:26:15;3.70;;;1.20;;
62880;SDS011;48969;49.934;8.596;2022-09-09T16:28:42;3.63;;;1.20;;
62880;SDS011;48969;49.934;8.596;2022-09-09T16:31:08;3.45;;;1.35;;
62880;SDS011;48969;49.934;8.596;2022-09-09T16:33:36;3.50;;;1.20;;
62880;SDS011;48969;49.934;8.596;2022-09-09T16:36:21;2.97;;;0.90;;
62880;SDS011;48969;49.934;8.596;2022-09-09T16:38:47;2.70;;;1.02;;
62880;SDS011;48969;49.934;8.596;2022-09-09T16:41:13;3.28;;;1.00;;
62880;SDS011;48969;49.934;8.596;2022-09-09T16:43:39;3.92;;;0.90;;
62880;SDS011;48969;49.934;8.596;2022-09-09T16:46:15;1.17;;;0.85;;
62880;SDS011;48969;49.934;8.596;2022-09-09T16:48:43;2.75;;;0.90;;
62880;SDS011;48969;49.934;8.596;2022-09-09T16:51:15;2.80;;;0.98;;
62880;SDS011;48969;49.934;8.596;2022-09-09T16:53:49;3.25;;;1.08;;
62880;SDS011;48969;49.934;8.596;2022-09-09T16:56:16;2.88;;;0.98;;
62880;SDS011;48969;49.934;8.596;2022-09-09T16:58:48;0.98;;;0.70;;
62880;SDS011;48969;49.934;8.596;2022-09-09T17:01:15;2.95;;;0.90;;
62880;SDS011;48969;49.934;8.596;2022-09-09T17:03:40;3.05;;;0.98;;